Time,TemperatureF,DewpointF,PressureIn,WindDirection,WindDirectionDegrees,WindSpeedMPH,WindSpeedGustMPH,Humidity,HourlyPrecipIn,Conditions,Clouds,dailyrainin,SoftwareType,DateUTC
2013-04-05 00:00:00,37.2,35.9,29.98,East,90,0.0,0.0,95,0.00,,,0.45,pywws,2013-04-05 04:00:00,
2013-04-05 00:02:00,37.2,35.9,29.98,East,90,0.0,0.0,95,0.00,,,0.45,pywws,2013-04-05 04:02:00,
2013-04-05 00:03:00,37.2,35.9,29.98,East,90,0.0,0.0,95,0.00,,,0.45,pywws,2013-04-05 04:03:00,
2013-04-05 00:11:00,37.4,37.1,29.98,North,0,0.0,0.0,99,0.00,,,0.45,pywws,2013-04-05 04:11:00,
2013-04-05 00:18:00,37.4,37.1,29.97,South,180,0.0,0.7,99,0.00,,,0.45,pywws,2013-04-05 04:18:00,
2013-04-05 00:23:00,37.4,37.1,29.97,South,180,0.0,0.0,99,0.00,,,0.45,pywws,2013-04-05 04:23:00,
2013-04-05 00:29:00,37.6,37.3,29.98,South,180,0.0,0.7,99,0.00,,,0.45,pywws,2013-04-05 04:29:00,
2013-04-05 00:35:00,37.9,37.7,29.98,SE,135,0.0,0.0,99,0.00,,,0.45,pywws,2013-04-05 04:35:00,
2013-04-05 00:40:00,37.9,37.7,29.97,SE,135,0.0,0.0,99,0.00,,,0.45,pywws,2013-04-05 04:40:00,
2013-04-05 00:47:00,37.9,37.7,29.97,East,90,0.0,0.7,99,0.00,,,0.45,pywws,2013-04-05 04:47:00,
2013-04-05 00:52:00,37.9,37.7,29.97,East,90,0.0,0.0,99,0.00,,,0.45,pywws,2013-04-05 04:52:00,
2013-04-05 00:58:00,37.8,37.5,29.97,East,90,0.7,1.6,99,0.00,,,0.45,pywws,2013-04-05 04:58:00,
2013-04-05 01:06:00,37.8,37.5,29.97,East,90,0.7,0.7,99,0.00,,,0.00,pywws,2013-04-05 05:06:00,
2013-04-05 01:12:00,37.8,37.5,29.97,NE,45,0.7,0.7,99,0.00,,,0.00,pywws,2013-04-05 05:12:00,
2013-04-05 01:18:00,37.8,37.5,29.97,NE,45,0.0,0.7,99,0.00,,,0.00,pywws,2013-04-05 05:18:00,
2013-04-05 01:25:00,37.9,37.7,29.97,NE,45,0.0,0.7,99,0.00,,,0.00,pywws,2013-04-05 05:25:00,
2013-04-05 01:31:00,37.9,37.7,29.97,East,90,0.7,1.6,99,0.00,,,0.00,pywws,2013-04-05 05:31:00,
2013-04-05 01:36:00,38.1,37.9,29.97,East,90,0.7,1.6,99,0.00,,,0.00,pywws,2013-04-05 05:36:00,
2013-04-05 01:42:00,38.1,37.9,29.97,East,90,0.0,0.0,99,0.00,,,0.00,pywws,2013-04-05 05:42:00,
2013-04-05 01:47:00,38.1,37.9,29.97,SE,135,1.6,2.2,99,0.00,,,0.00,pywws,2013-04-05 05:47:00,
2013-04-05 01:53:00,38.1,37.9,29.97,South,180,0.7,1.6,99,0.00,,,0.00,pywws,2013-04-05 05:53:00,
2013-04-05 01:59:00,38.1,37.9,29.96,South,180,0.7,1.6,99,0.00,,,0.00,pywws,2013-04-05 05:59:00,
2013-04-05 02:04:00,38.1,37.9,29.96,SE,135,0.7,1.6,99,0.00,,,0.00,pywws,2013-04-05 06:04:00,
2013-04-05 02:10:00,38.3,38.0,29.97,SW,225,0.7,2.2,99,0.00,,,0.00,pywws,2013-04-05 06:10:00,
2013-04-05 02:15:00,38.3,38.0,29.97,SW,225,0.0,0.7,99,0.00,,,0.00,pywws,2013-04-05 06:15:00,
2013-04-05 02:20:00,38.5,38.2,29.97,South,180,0.7,1.6,99,0.00,,,0.00,pywws,2013-04-05 06:20:00,
2013-04-05 02:26:00,38.7,38.4,29.97,SE,135,0.7,1.6,99,0.00,,,0.00,pywws,2013-04-05 06:26:00,
2013-04-05 02:32:00,38.7,38.4,29.97,East,90,0.0,0.7,99,0.00,,,0.00,pywws,2013-04-05 06:32:00,
2013-04-05 02:37:00,38.7,38.4,29.97,South,180,1.6,2.2,99,0.00,,,0.00,pywws,2013-04-05 06:37:00,
2013-04-05 02:43:00,38.7,38.1,29.97,SE,135,0.0,0.7,98,0.00,,,0.00,pywws,2013-04-05 06:43:00,
2013-04-05 02:49:00,38.5,38.0,29.96,SE,135,0.0,0.7,98,0.00,,,0.00,pywws,2013-04-05 06:49:00,
2013-04-05 02:55:00,38.3,37.8,29.97,SW,225,0.0,1.6,98,0.00,,,0.00,pywws,2013-04-05 06:55:00,
2013-04-05 03:00:00,38.5,37.7,29.96,NE,45,0.0,0.7,97,0.00,,,0.00,pywws,2013-04-05 07:00:00,
2013-04-05 03:06:00,38.5,37.7,29.96,NE,45,0.0,0.0,97,0.00,,,0.00,pywws,2013-04-05 07:06:00,
2013-04-05 03:12:00,38.3,37.5,29.96,NE,45,0.0,0.0,97,0.00,,,0.00,pywws,2013-04-05 07:12:00,
2013-04-05 03:18:00,38.3,37.5,29.96,NE,45,0.0,0.0,97,0.00,,,0.00,pywws,2013-04-05 07:18:00,
2013-04-05 03:26:00,38.3,37.5,29.96,NE,45,0.0,0.0,97,0.00,,,0.00,pywws,2013-04-05 07:26:00,
2013-04-05 03:31:00,38.3,37.5,29.96,NE,45,0.0,0.0,97,0.00,,,0.00,pywws,2013-04-05 07:31:00,
2013-04-05 03:37:00,38.1,37.3,29.96,NE,45,0.0,0.0,97,0.00,,,0.00,pywws,2013-04-05 07:37:00,
2013-04-05 03:44:00,38.1,37.3,29.96,NE,45,0.0,0.0,97,0.00,,,0.00,pywws,2013-04-05 07:44:00,
2013-04-05 03:50:00,38.1,37.6,29.96,NE,45,0.0,0.0,98,0.00,,,0.00,pywws,2013-04-05 07:50:00,
2013-04-05 03:55:00,38.1,37.6,29.97,NE,45,0.0,0.0,98,0.00,,,0.00,pywws,2013-04-05 07:55:00,
2013-04-05 04:01:00,38.1,37.6,29.96,NE,45,0.0,0.0,98,0.00,,,0.00,pywws,2013-04-05 08:01:00,
2013-04-05 04:08:00,38.1,37.6,29.96,NE,45,0.0,0.0,98,0.00,,,0.00,pywws,2013-04-05 08:08:00,
2013-04-05 04:14:00,38.1,37.6,29.96,NE,45,0.7,1.6,98,0.00,,,0.00,pywws,2013-04-05 08:14:00,
2013-04-05 04:19:00,38.1,37.6,29.97,North,0,0.0,1.6,98,0.00,,,0.00,pywws,2013-04-05 08:19:00,
2013-04-05 04:26:00,38.1,37.6,29.97,North,0,0.0,0.7,98,0.00,,,0.00,pywws,2013-04-05 08:26:00,
2013-04-05 04:31:00,37.9,37.4,29.96,North,0,2.2,3.8,98,0.00,,,0.00,pywws,2013-04-05 08:31:00,
2013-04-05 04:37:00,37.8,37.5,29.96,NE,45,1.6,3.1,99,0.00,,,0.00,pywws,2013-04-05 08:37:00,
2013-04-05 04:43:00,37.8,37.5,29.96,NW,315,0.0,0.7,99,0.00,,,0.00,pywws,2013-04-05 08:43:00,
2013-04-05 04:48:00,37.8,37.5,29.96,NE,45,0.0,0.7,99,0.00,,,0.00,pywws,2013-04-05 08:48:00,
2013-04-05 04:54:00,37.6,37.3,29.96,NW,315,0.0,1.6,99,0.00,,,0.00,pywws,2013-04-05 08:54:00,
2013-04-05 04:59:00,37.6,37.3,29.96,SW,225,0.0,0.7,99,0.00,,,0.00,pywws,2013-04-05 08:59:00,
2013-04-05 05:05:00,37.6,37.3,29.97,North,0,0.0,0.7,99,0.00,,,0.00,pywws,2013-04-05 09:05:00,
2013-04-05 05:11:00,37.6,37.3,29.97,North,0,0.0,0.7,99,0.00,,,0.00,pywws,2013-04-05 09:11:00,
2013-04-05 05:18:00,37.6,37.3,29.96,North,0,0.7,1.6,99,0.00,,,0.00,pywws,2013-04-05 09:18:00,
2013-04-05 05:23:00,37.6,37.3,29.96,NE,45,0.0,0.7,99,0.00,,,0.00,pywws,2013-04-05 09:23:00,
2013-04-05 05:29:00,37.6,37.3,29.96,West,270,0.7,2.2,99,0.00,,,0.00,pywws,2013-04-05 09:29:00,
2013-04-05 05:35:00,37.8,37.5,29.96,SSW,202,1.6,2.2,99,0.00,,,0.00,pywws,2013-04-05 09:35:00,
2013-04-05 05:40:00,37.8,37.5,29.96,North,0,0.0,0.7,99,0.00,,,0.00,pywws,2013-04-05 09:40:00,
2013-04-05 05:46:00,37.8,37.5,29.96,North,0,0.0,0.0,99,0.00,,,0.00,pywws,2013-04-05 09:46:00,
2013-04-05 05:51:00,37.9,37.7,29.96,East,90,1.6,3.1,99,0.00,,,0.00,pywws,2013-04-05 09:51:00,
2013-04-05 05:57:00,37.9,37.7,29.96,NW,315,0.7,2.2,99,0.00,,,0.00,pywws,2013-04-05 09:57:00,
2013-04-05 06:03:00,37.9,37.7,29.96,North,0,0.0,1.6,99,0.00,,,0.00,pywws,2013-04-05 10:03:00,
2013-04-05 06:09:00,37.9,37.7,29.96,NE,45,0.0,0.7,99,0.00,,,0.00,pywws,2013-04-05 10:09:00,
2013-04-05 06:15:00,37.9,37.7,29.96,SW,225,0.0,0.7,99,0.00,,,0.00,pywws,2013-04-05 10:15:00,
2013-04-05 06:20:00,37.9,37.7,29.96,North,0,0.7,1.6,99,0.00,,,0.00,pywws,2013-04-05 10:20:00,
2013-04-05 06:26:00,37.9,37.7,29.96,NE,45,0.7,3.1,99,0.00,,,0.00,pywws,2013-04-05 10:26:00,
2013-04-05 06:31:00,37.9,37.7,29.96,NE,45,0.0,0.7,99,0.00,,,0.00,pywws,2013-04-05 10:31:00,
2013-04-05 06:37:00,37.9,37.7,29.97,North,0,2.2,3.1,99,0.00,,,0.00,pywws,2013-04-05 10:37:00,
2013-04-05 06:43:00,37.9,37.7,29.97,North,0,0.0,0.7,99,0.00,,,0.00,pywws,2013-04-05 10:43:00,
2013-04-05 06:48:00,37.9,37.7,29.98,West,270,0.7,3.1,99,0.00,,,0.00,pywws,2013-04-05 10:48:00,
2013-04-05 07:00:00,38.1,37.9,29.98,NE,45,0.0,1.6,99,0.00,,,0.00,pywws,2013-04-05 11:00:00,
2013-04-05 07:06:00,38.1,37.9,29.98,SW,225,1.6,2.2,99,0.00,,,0.00,pywws,2013-04-05 11:06:00,
2013-04-05 07:11:00,38.1,37.9,29.98,North,0,0.7,2.2,99,0.00,,,0.00,pywws,2013-04-05 11:11:00,
2013-04-05 07:17:00,38.1,37.9,29.99,North,0,0.7,1.6,99,0.00,,,0.00,pywws,2013-04-05 11:17:00,
2013-04-05 07:23:00,38.1,37.9,29.99,North,0,0.7,1.6,99,0.00,,,0.00,pywws,2013-04-05 11:23:00,
2013-04-05 07:28:00,38.1,37.9,30.00,North,0,1.6,2.2,99,0.00,,,0.00,pywws,2013-04-05 11:28:00,
2013-04-05 07:34:00,38.3,38.0,30.00,North,0,2.2,3.1,99,0.00,,,0.00,pywws,2013-04-05 11:34:00,
2013-04-05 07:39:00,38.5,38.2,30.00,North,0,0.0,0.7,99,0.00,,,0.00,pywws,2013-04-05 11:39:00,
2013-04-05 07:45:00,38.5,38.2,30.00,NE,45,0.0,1.6,99,0.00,,,0.00,pywws,2013-04-05 11:45:00,
2013-04-05 07:51:00,38.7,38.4,30.01,North,0,1.6,3.1,99,0.00,,,0.00,pywws,2013-04-05 11:51:00,
2013-04-05 07:56:00,38.7,38.4,30.01,North,0,2.2,3.8,99,0.00,,,0.00,pywws,2013-04-05 11:56:00,
2013-04-05 08:02:00,38.7,38.4,30.01,North,0,2.2,3.1,99,0.00,,,0.00,pywws,2013-04-05 12:02:00,
2013-04-05 08:07:00,38.8,38.6,30.01,NE,45,1.6,2.2,99,0.00,,,0.00,pywws,2013-04-05 12:07:00,
2013-04-05 08:13:00,39.0,38.8,30.02,NE,45,3.1,4.5,99,0.00,,,0.00,pywws,2013-04-05 12:13:00,
2013-04-05 08:19:00,39.0,38.8,30.02,North,0,1.6,2.2,99,0.00,,,0.00,pywws,2013-04-05 12:19:00,
2013-04-05 08:24:00,39.2,38.9,30.02,North,0,0.7,1.6,99,0.00,,,0.00,pywws,2013-04-05 12:24:00,
2013-04-05 08:30:00,39.4,39.1,30.02,West,270,0.0,1.6,99,0.00,,,0.00,pywws,2013-04-05 12:30:00,
2013-04-05 08:35:00,39.7,39.5,30.02,North,0,0.0,0.7,99,0.00,,,0.00,pywws,2013-04-05 12:35:00,
2013-04-05 08:42:00,39.9,39.7,30.03,NNW,338,0.7,1.6,99,0.00,,,0.00,pywws,2013-04-05 12:42:00,
2013-04-05 08:47:00,40.3,40.0,30.02,North,0,0.0,1.6,99,0.00,,,0.00,pywws,2013-04-05 12:47:00,
2013-04-05 08:53:00,40.3,40.0,30.02,NE,45,1.6,2.2,99,0.00,,,0.00,pywws,2013-04-05 12:53:00,
2013-04-05 08:59:00,40.3,40.0,30.03,NE,45,1.6,2.2,99,0.00,,,0.00,pywws,2013-04-05 12:59:00,
2013-04-05 09:04:00,40.3,40.0,30.03,NE,45,0.7,2.2,99,0.00,,,0.00,pywws,2013-04-05 13:04:00,
2013-04-05 09:10:00,40.5,40.2,30.03,NE,45,0.7,1.6,99,0.00,,,0.00,pywws,2013-04-05 13:10:00,
2013-04-05 09:15:00,40.6,40.4,30.03,NW,315,0.7,1.6,99,0.00,,,0.00,pywws,2013-04-05 13:15:00,
2013-04-05 09:21:00,41.0,40.5,30.03,NW,315,0.7,1.6,98,0.00,,,0.00,pywws,2013-04-05 13:21:00,
2013-04-05 09:27:00,41.4,40.8,30.03,NW,315,0.7,1.6,98,0.00,,,0.00,pywws,2013-04-05 13:27:00,
2013-04-05 09:32:00,41.7,41.2,30.03,NE,45,1.6,3.1,98,0.00,,,0.00,pywws,2013-04-05 13:32:00,
2013-04-05 09:38:00,41.9,41.1,30.03,NW,315,0.0,0.7,97,0.00,,,0.00,pywws,2013-04-05 13:38:00,
2013-04-05 09:43:00,42.3,41.2,30.03,NNE,22,1.6,3.8,96,0.00,,,0.00,pywws,2013-04-05 13:43:00,
2013-04-05 09:49:00,42.6,41.6,30.04,NE,45,2.2,3.1,96,0.00,,,0.00,pywws,2013-04-05 13:49:00,
2013-04-05 09:55:00,42.6,41.3,30.04,North,0,0.0,1.6,95,0.00,,,0.00,pywws,2013-04-05 13:55:00,
2013-04-05 10:02:00,42.6,41.0,30.04,East,90,2.2,3.8,94,0.00,,,0.00,pywws,2013-04-05 14:02:00,
2013-04-05 10:07:00,42.4,40.6,30.04,North,0,0.7,2.2,93,0.00,,,0.00,pywws,2013-04-05 14:07:00,
2013-04-05 10:13:00,42.6,40.7,30.04,NE,45,0.0,1.6,93,0.00,,,0.00,pywws,2013-04-05 14:13:00,
2013-04-05 10:19:00,42.6,40.7,30.04,North,0,0.7,1.6,93,0.00,,,0.00,pywws,2013-04-05 14:19:00,
2013-04-05 10:24:00,42.8,40.4,30.04,North,0,0.0,0.7,91,0.00,,,0.00,pywws,2013-04-05 14:24:00,
2013-04-05 10:30:00,43.0,40.5,30.05,SW,225,0.7,3.1,91,0.00,,,0.00,pywws,2013-04-05 14:30:00,
2013-04-05 10:35:00,43.0,40.3,30.05,South,180,2.2,5.4,90,0.00,,,0.00,pywws,2013-04-05 14:35:00,
2013-04-05 10:40:00,43.0,40.3,30.05,South,180,1.6,3.8,90,0.00,,,0.00,pywws,2013-04-05 14:40:00,
2013-04-05 10:46:00,43.2,40.4,30.05,NE,45,3.1,5.4,90,0.00,,,0.00,pywws,2013-04-05 14:46:00,
2013-04-05 10:51:00,43.2,40.4,30.05,NE,45,0.7,2.2,90,0.00,,,0.00,pywws,2013-04-05 14:51:00,
2013-04-05 10:57:00,43.3,40.6,30.06,NW,315,0.0,1.6,90,0.00,,,0.00,pywws,2013-04-05 14:57:00,
2013-04-05 11:03:00,43.7,40.7,30.05,NE,45,1.6,3.8,89,0.00,,,0.00,pywws,2013-04-05 15:03:00,
2013-04-05 11:08:00,44.2,41.2,30.06,North,0,3.1,4.5,89,0.00,,,0.00,pywws,2013-04-05 15:08:00,
2013-04-05 11:14:00,45.0,41.3,30.05,NE,45,0.7,2.2,87,0.00,,,0.00,pywws,2013-04-05 15:14:00,
2013-04-05 11:19:00,46.0,42.1,30.06,SE,135,1.6,3.8,86,0.00,,,0.00,pywws,2013-04-05 15:19:00,
2013-04-05 11:25:00,46.8,42.5,30.06,West,270,1.6,3.1,85,0.00,,,0.00,pywws,2013-04-05 15:25:00,
2013-04-05 11:31:00,48.2,43.0,30.06,NE,45,0.7,1.6,82,0.00,,,0.00,pywws,2013-04-05 15:31:00,
2013-04-05 11:36:00,50.4,43.1,30.05,North,0,0.7,2.2,76,0.00,,,0.00,pywws,2013-04-05 15:36:00,
2013-04-05 11:42:00,51.4,42.4,30.05,West,270,0.7,1.6,71,0.00,,,0.00,pywws,2013-04-05 15:42:00,
2013-04-05 11:47:00,51.4,42.0,30.05,North,0,0.7,1.6,70,0.00,,,0.00,pywws,2013-04-05 15:47:00,
2013-04-05 11:53:00,50.5,41.1,30.05,North,0,1.6,3.1,70,0.00,,,0.00,pywws,2013-04-05 15:53:00,
2013-04-05 11:58:00,50.5,41.9,30.05,NW,315,0.7,1.6,72,0.00,,,0.00,pywws,2013-04-05 15:58:00,
2013-04-05 12:04:00,51.3,41.8,30.05,West,270,0.7,2.2,70,0.00,,,0.00,pywws,2013-04-05 16:04:00,
2013-04-05 12:10:00,51.1,40.9,30.05,SW,225,1.6,2.2,68,0.00,,,0.00,pywws,2013-04-05 16:10:00,
2013-04-05 12:15:00,52.3,42.5,30.05,NW,315,1.6,3.8,69,0.00,,,0.00,pywws,2013-04-05 16:15:00,
2013-04-05 12:20:00,52.0,41.0,30.04,NE,45,1.6,3.1,66,0.00,,,0.00,pywws,2013-04-05 16:20:00,
2013-04-05 12:26:00,52.7,42.4,30.04,North,0,1.6,3.1,68,0.00,,,0.00,pywws,2013-04-05 16:26:00,
2013-04-05 12:32:00,52.3,40.9,30.04,North,0,2.2,6.0,65,0.00,,,0.00,pywws,2013-04-05 16:32:00,
2013-04-05 12:38:00,52.9,41.8,30.04,NE,45,2.2,4.5,66,0.00,,,0.00,pywws,2013-04-05 16:38:00,
2013-04-05 12:43:00,55.0,42.7,30.04,NW,315,2.2,3.8,63,0.00,,,0.00,pywws,2013-04-05 16:43:00,
2013-04-05 12:49:00,55.4,41.7,30.04,NW,315,1.6,3.1,60,0.00,,,0.00,pywws,2013-04-05 16:49:00,
2013-04-05 12:55:00,53.8,40.7,30.04,North,0,0.7,2.2,61,0.00,,,0.00,pywws,2013-04-05 16:55:00,
2013-04-05 13:00:00,54.0,41.7,30.04,NE,45,1.6,3.1,63,0.00,,,0.00,pywws,2013-04-05 17:00:00,
2013-04-05 13:07:00,55.0,42.3,30.04,NW,315,1.6,3.1,62,0.00,,,0.00,pywws,2013-04-05 17:07:00,
2013-04-05 13:12:00,55.4,41.3,30.04,West,270,1.6,3.1,59,0.00,,,0.00,pywws,2013-04-05 17:12:00,
2013-04-05 13:18:00,55.0,40.5,30.04,North,0,0.7,2.2,58,0.00,,,0.00,pywws,2013-04-05 17:18:00,
2013-04-05 13:23:00,54.5,40.9,30.03,East,90,1.6,3.8,60,0.00,,,0.00,pywws,2013-04-05 17:23:00,
2013-04-05 13:29:00,54.3,41.2,30.03,NE,45,3.8,6.0,61,0.00,,,0.00,pywws,2013-04-05 17:29:00,
2013-04-05 13:35:00,55.2,41.6,30.03,South,180,1.6,3.8,60,0.00,,,0.00,pywws,2013-04-05 17:35:00,
2013-04-05 13:40:00,55.6,41.0,30.03,North,0,2.2,4.5,58,0.00,,,0.00,pywws,2013-04-05 17:40:00,
2013-04-05 13:46:00,55.6,40.6,30.03,South,180,3.8,7.6,57,0.00,,,0.00,pywws,2013-04-05 17:46:00,
2013-04-05 13:51:00,56.1,40.6,30.03,NW,315,1.6,3.1,56,0.00,,,0.00,pywws,2013-04-05 17:51:00,
2013-04-05 13:57:00,56.3,40.3,30.03,NNW,338,7.6,10.7,55,0.01,,,0.01,pywws,2013-04-05 17:57:00,
2013-04-05 14:03:00,56.3,40.3,30.03,NE,45,1.6,2.2,55,0.01,,,0.01,pywws,2013-04-05 18:03:00,
2013-04-05 14:08:00,56.5,40.5,30.03,NW,315,1.6,3.1,55,0.01,,,0.01,pywws,2013-04-05 18:08:00,
2013-04-05 14:14:00,56.7,40.7,30.02,NE,45,3.1,5.4,55,0.01,,,0.01,pywws,2013-04-05 18:14:00,
2013-04-05 14:19:00,57.2,41.2,30.02,SW,225,2.2,5.4,55,0.01,,,0.01,pywws,2013-04-05 18:19:00,
2013-04-05 14:25:00,57.6,41.0,30.02,WNW,292,5.4,9.8,54,0.01,,,0.01,pywws,2013-04-05 18:25:00,
2013-04-05 14:31:00,57.9,39.9,30.02,ENE,68,1.6,2.2,51,0.01,,,0.01,pywws,2013-04-05 18:31:00,
2013-04-05 14:37:00,59.7,39.5,30.02,SW,225,0.7,2.2,47,0.01,,,0.01,pywws,2013-04-05 18:37:00,
2013-04-05 14:43:00,58.5,38.8,30.01,NW,315,4.5,8.3,48,0.01,,,0.01,pywws,2013-04-05 18:43:00,
2013-04-05 14:48:00,58.6,37.9,30.02,North,0,1.6,3.1,46,0.01,,,0.01,pywws,2013-04-05 18:48:00,
2013-04-05 14:55:00,58.8,37.5,30.02,West,270,4.5,6.0,45,0.01,,,0.01,pywws,2013-04-05 18:55:00,
2013-04-05 15:00:00,58.6,36.2,30.02,SW,225,2.2,4.5,43,0.00,,,0.01,pywws,2013-04-05 19:00:00,
2013-04-05 15:05:00,59.4,36.9,30.02,NW,315,1.6,3.1,43,0.00,,,0.01,pywws,2013-04-05 19:05:00,
2013-04-05 15:11:00,59.9,36.8,30.01,NW,315,1.6,4.5,42,0.00,,,0.01,pywws,2013-04-05 19:11:00,
2013-04-05 15:16:00,60.1,32.3,30.01,South,180,1.6,3.1,35,0.00,,,0.01,pywws,2013-04-05 19:16:00,
2013-04-05 15:22:00,61.7,33.8,30.01,NW,315,0.7,1.6,35,0.00,,,0.01,pywws,2013-04-05 19:22:00,
2013-04-05 15:27:00,61.9,33.9,30.02,NNW,338,0.7,2.2,35,0.00,,,0.01,pywws,2013-04-05 19:27:00,
2013-04-05 15:33:00,61.0,31.7,30.02,NE,45,3.1,5.4,33,0.00,,,0.01,pywws,2013-04-05 19:33:00,
2013-04-05 15:39:00,61.0,33.8,30.01,South,180,1.6,3.8,36,0.00,,,0.01,pywws,2013-04-05 19:39:00,
2013-04-05 15:44:00,60.1,29.4,30.01,North,0,4.5,6.9,31,0.00,,,0.01,pywws,2013-04-05 19:44:00,
2013-04-05 15:50:00,60.1,32.3,30.02,North,0,1.6,3.1,35,0.00,,,0.01,pywws,2013-04-05 19:50:00,
2013-04-05 15:55:00,61.0,32.4,30.01,NE,45,2.2,4.5,34,0.00,,,0.01,pywws,2013-04-05 19:55:00,
2013-04-05 16:01:00,61.5,31.4,30.01,North,0,1.6,3.1,32,0.00,,,0.01,pywws,2013-04-05 20:01:00,
2013-04-05 16:07:00,62.2,30.4,30.01,North,0,1.6,3.1,30,0.00,,,0.01,pywws,2013-04-05 20:07:00,
2013-04-05 16:12:00,63.0,31.0,30.01,NW,315,0.7,2.2,30,0.00,,,0.01,pywws,2013-04-05 20:12:00,
2013-04-05 16:18:00,64.6,33.3,30.01,SW,225,0.7,2.2,31,0.00,,,0.01,pywws,2013-04-05 20:18:00,
2013-04-05 16:23:00,65.3,33.1,30.01,North,0,1.6,3.8,30,0.00,,,0.01,pywws,2013-04-05 20:23:00,
2013-04-05 16:29:00,64.6,32.4,30.01,NE,45,2.2,3.8,30,0.00,,,0.01,pywws,2013-04-05 20:29:00,
2013-04-05 16:35:00,63.5,30.7,30.01,North,0,2.2,3.8,29,0.00,,,0.01,pywws,2013-04-05 20:35:00,
2013-04-05 16:40:00,63.7,32.5,30.01,SW,225,0.7,2.2,31,0.00,,,0.01,pywws,2013-04-05 20:40:00,
2013-04-05 16:46:00,63.7,32.5,30.01,NW,315,2.2,3.8,31,0.00,,,0.01,pywws,2013-04-05 20:46:00,
2013-04-05 16:51:00,64.4,33.9,30.01,NE,45,1.6,3.1,32,0.00,,,0.01,pywws,2013-04-05 20:51:00,
2013-04-05 16:56:00,63.5,32.3,30.01,North,0,2.2,3.1,31,0.00,,,0.01,pywws,2013-04-05 20:56:00,
2013-04-05 17:02:00,63.0,33.4,30.01,SW,225,1.6,3.1,33,0.00,,,0.01,pywws,2013-04-05 21:02:00,
2013-04-05 17:07:00,63.7,34.0,30.02,NW,315,1.6,3.8,33,0.00,,,0.01,pywws,2013-04-05 21:07:00,
2013-04-05 17:13:00,64.2,33.7,30.02,NW,315,2.2,4.5,32,0.00,,,0.01,pywws,2013-04-05 21:13:00,
2013-04-05 17:19:00,63.7,33.3,30.02,SW,225,4.5,6.9,32,0.00,,,0.01,pywws,2013-04-05 21:19:00,
2013-04-05 17:24:00,63.1,32.8,30.02,SW,225,1.6,2.2,32,0.00,,,0.01,pywws,2013-04-05 21:24:00,
2013-04-05 17:30:00,63.5,33.1,30.02,NW,315,3.1,3.8,32,0.00,,,0.01,pywws,2013-04-05 21:30:00,
2013-04-05 17:35:00,64.4,36.1,30.02,North,0,2.2,4.5,35,0.00,,,0.01,pywws,2013-04-05 21:35:00,
2013-04-05 17:41:00,64.0,34.4,30.03,North,0,0.7,1.6,33,0.00,,,0.01,pywws,2013-04-05 21:41:00,
2013-04-05 17:47:00,63.3,33.0,30.03,NE,45,2.2,5.4,32,0.00,,,0.01,pywws,2013-04-05 21:47:00,
2013-04-05 17:52:00,62.4,33.7,30.03,East,90,1.6,3.1,34,0.00,,,0.01,pywws,2013-04-05 21:52:00,
2013-04-05 17:58:00,63.5,34.6,30.03,SW,225,2.2,3.8,34,0.00,,,0.01,pywws,2013-04-05 21:58:00,
2013-04-05 18:03:00,63.5,33.9,30.03,East,90,0.7,2.2,33,0.00,,,0.01,pywws,2013-04-05 22:03:00,
2013-04-05 18:09:00,63.9,34.2,30.03,SW,225,3.1,4.5,33,0.00,,,0.01,pywws,2013-04-05 22:09:00,
2013-04-05 18:15:00,63.9,33.4,30.03,North,0,2.2,3.8,32,0.00,,,0.01,pywws,2013-04-05 22:15:00,
2013-04-05 18:20:00,63.3,33.7,30.03,North,0,0.7,1.6,33,0.00,,,0.01,pywws,2013-04-05 22:20:00,
2013-04-05 18:26:00,63.7,34.0,30.03,East,90,0.7,1.6,33,0.00,,,0.01,pywws,2013-04-05 22:26:00,
2013-04-05 18:31:00,63.9,34.2,30.03,NE,45,0.7,2.2,33,0.00,,,0.01,pywws,2013-04-05 22:31:00,
2013-04-05 18:37:00,63.0,34.2,30.03,North,0,1.6,3.8,34,0.00,,,0.01,pywws,2013-04-05 22:37:00,
2013-04-05 18:42:00,61.2,34.0,30.04,North,0,0.7,1.6,36,0.00,,,0.01,pywws,2013-04-05 22:42:00,
2013-04-05 18:47:00,60.1,35.7,30.04,NNE,22,0.7,1.6,40,0.00,,,0.01,pywws,2013-04-05 22:47:00,
2013-04-05 18:53:00,57.9,35.0,30.04,NE,45,1.6,3.1,42,0.00,,,0.01,pywws,2013-04-05 22:53:00,
2013-04-05 18:59:00,56.3,35.8,30.04,NW,315,1.6,2.2,46,0.00,,,0.01,pywws,2013-04-05 22:59:00,
2013-04-05 19:04:00,55.9,35.5,30.04,North,0,0.7,2.2,46,0.00,,,0.01,pywws,2013-04-05 23:04:00,
2013-04-05 19:11:00,55.6,35.1,30.04,NE,45,2.2,4.5,46,0.00,,,0.01,pywws,2013-04-05 23:11:00,
2013-04-05 19:16:00,55.0,35.2,30.04,East,90,0.7,2.2,47,0.00,,,0.01,pywws,2013-04-05 23:16:00,
2013-04-05 19:22:00,54.7,34.9,30.05,NE,45,0.7,1.6,47,0.00,,,0.01,pywws,2013-04-05 23:22:00,
2013-04-05 19:27:00,54.0,35.2,30.04,West,270,1.6,3.1,49,0.00,,,0.01,pywws,2013-04-05 23:27:00,
2013-04-05 19:33:00,53.4,35.7,30.05,NE,45,1.6,2.2,51,0.00,,,0.01,pywws,2013-04-05 23:33:00,
2013-04-05 19:39:00,53.1,35.9,30.05,NW,315,1.6,3.1,52,0.00,,,0.01,pywws,2013-04-05 23:39:00,
2013-04-05 19:44:00,52.7,35.6,30.05,North,0,0.0,1.6,52,0.00,,,0.01,pywws,2013-04-05 23:44:00,
2013-04-05 19:50:00,52.5,35.4,30.05,NE,45,0.7,2.2,52,0.00,,,0.01,pywws,2013-04-05 23:50:00,
2013-04-05 19:55:00,52.2,35.1,30.05,North,0,0.0,0.7,52,0.00,,,0.01,pywws,2013-04-05 23:55:00,
2013-04-05 20:01:00,51.6,35.1,30.05,East,90,0.7,1.6,53,0.00,,,0.01,pywws,2013-04-06 00:01:00,
2013-04-05 20:06:00,51.3,35.2,30.06,North,0,0.0,0.7,54,0.00,,,0.01,pywws,2013-04-06 00:06:00,
2013-04-05 20:12:00,50.5,34.5,30.06,North,0,0.0,0.0,54,0.00,,,0.01,pywws,2013-04-06 00:12:00,
2013-04-05 20:18:00,50.0,34.0,30.07,South,180,0.0,0.0,54,0.00,,,0.01,pywws,2013-04-06 00:18:00,
2013-04-05 20:23:00,49.6,34.6,30.06,SW,225,0.0,0.0,56,0.00,,,0.01,pywws,2013-04-06 00:23:00,
2013-04-05 20:29:00,49.5,34.9,30.06,SW,225,0.7,1.6,57,0.00,,,0.01,pywws,2013-04-06 00:29:00,
2013-04-05 20:35:00,49.1,35.0,30.07,SW,225,0.0,0.7,58,0.00,,,0.01,pywws,2013-04-06 00:35:00,
2013-04-05 20:40:00,48.6,34.9,30.06,SW,225,0.7,1.6,59,0.00,,,0.01,pywws,2013-04-06 00:40:00,
2013-04-05 20:46:00,48.0,35.2,30.07,SW,225,0.7,1.6,61,0.00,,,0.01,pywws,2013-04-06 00:46:00,
2013-04-05 20:51:00,47.5,35.1,30.07,SW,225,0.7,1.6,62,0.00,,,0.01,pywws,2013-04-06 00:51:00,
2013-04-05 20:57:00,47.1,35.2,30.07,SW,225,1.6,2.2,63,0.00,,,0.01,pywws,2013-04-06 00:57:00,
2013-04-05 21:03:00,46.6,35.1,30.08,SW,225,0.7,0.7,64,0.00,,,0.01,pywws,2013-04-06 01:03:00,
2013-04-05 21:08:00,46.6,35.1,30.08,SW,225,0.0,0.0,64,0.00,,,0.01,pywws,2013-04-06 01:08:00,
2013-04-05 21:14:00,46.2,34.3,30.07,SW,225,0.0,0.0,63,0.00,,,0.01,pywws,2013-04-06 01:14:00,
2013-04-05 21:20:00,45.7,33.8,30.08,SW,225,0.0,0.0,63,0.00,,,0.01,pywws,2013-04-06 01:20:00,
2013-04-05 21:26:00,45.3,33.9,30.09,SW,225,1.6,2.2,64,0.00,,,0.01,pywws,2013-04-06 01:26:00,
2013-04-05 21:31:00,44.8,34.5,30.09,South,180,1.6,2.2,67,0.00,,,0.01,pywws,2013-04-06 01:31:00,
2013-04-05 21:38:00,44.4,34.5,30.09,South,180,0.7,1.6,68,0.00,,,0.01,pywws,2013-04-06 01:38:00,
2013-04-05 21:45:00,44.1,34.2,30.09,South,180,0.0,0.0,68,0.00,,,0.01,pywws,2013-04-06 01:45:00,
2013-04-05 21:51:00,43.3,33.9,30.09,North,0,0.0,0.0,69,0.00,,,0.01,pywws,2013-04-06 01:51:00,
2013-04-05 21:56:00,43.0,33.9,30.09,SW,225,0.7,1.6,70,0.00,,,0.01,pywws,2013-04-06 01:56:00,
2013-04-05 22:02:00,42.8,34.1,30.10,South,180,0.7,1.6,71,0.00,,,0.01,pywws,2013-04-06 02:02:00,
2013-04-05 22:07:00,42.6,34.9,30.10,SW,225,1.6,2.2,74,0.00,,,0.01,pywws,2013-04-06 02:07:00,
2013-04-05 22:13:00,42.6,34.9,30.10,South,180,0.7,1.6,74,0.00,,,0.01,pywws,2013-04-06 02:13:00,
2013-04-05 22:19:00,43.0,34.2,30.10,South,180,0.0,0.0,71,0.00,,,0.01,pywws,2013-04-06 02:19:00,
2013-04-05 22:24:00,42.6,34.2,30.10,SW,225,0.7,1.6,72,0.00,,,0.01,pywws,2013-04-06 02:24:00,
2013-04-05 22:31:00,42.3,34.6,30.11,SW,225,1.6,3.1,74,0.00,,,0.01,pywws,2013-04-06 02:31:00,
2013-04-05 22:36:00,42.1,34.4,30.10,SW,225,0.7,1.6,74,0.00,,,0.01,pywws,2013-04-06 02:36:00,
2013-04-05 22:42:00,42.1,34.4,30.10,NE,45,0.0,0.7,74,0.00,,,0.01,pywws,2013-04-06 02:42:00,
2013-04-05 22:47:00,42.1,34.4,30.10,SW,225,0.0,0.7,74,0.00,,,0.01,pywws,2013-04-06 02:47:00,
2013-04-05 22:53:00,41.7,33.7,30.11,SW,225,1.6,2.2,73,0.00,,,0.01,pywws,2013-04-06 02:53:00,
2013-04-05 22:59:00,41.7,34.1,30.11,SSW,202,0.7,1.6,74,0.00,,,0.01,pywws,2013-04-06 02:59:00,
2013-04-05 23:04:00,41.2,33.9,30.11,SW,225,0.7,1.6,75,0.00,,,0.01,pywws,2013-04-06 03:04:00,
2013-04-05 23:10:00,40.8,34.2,30.11,South,180,0.7,1.6,77,0.00,,,0.01,pywws,2013-04-06 03:10:00,
2013-04-05 23:15:00,40.6,34.0,30.11,SW,225,0.0,0.7,77,0.00,,,0.01,pywws,2013-04-06 03:15:00,
2013-04-05 23:21:00,40.8,34.2,30.11,SW,225,1.6,2.2,77,0.00,,,0.01,pywws,2013-04-06 03:21:00,
2013-04-05 23:27:00,40.5,33.8,30.11,SW,225,0.0,0.0,77,0.00,,,0.01,pywws,2013-04-06 03:27:00,
2013-04-05 23:32:00,40.1,33.5,30.11,SW,225,0.0,0.7,77,0.00,,,0.01,pywws,2013-04-06 03:32:00,
2013-04-05 23:38:00,40.1,33.8,30.11,SW,225,0.0,0.7,78,0.00,,,0.01,pywws,2013-04-06 03:38:00,
2013-04-05 23:43:00,39.9,33.6,30.11,SW,225,0.7,1.6,78,0.00,,,0.01,pywws,2013-04-06 03:43:00,
2013-04-05 23:49:00,39.9,33.9,30.11,SW,225,0.7,1.6,79,0.00,,,0.01,pywws,2013-04-06 03:49:00,
2013-04-05 23:54:00,39.7,34.1,30.11,SW,225,0.0,0.0,80,0.00,,,0.01,pywws,2013-04-06 03:54:00,